Time;durP1;ratioP1;P1;durP2;ratioP2;P2;SDS_P1;SDS_P2;PMS_P1;PMS_P2;Temp;Humidity;BMP_temperature;BMP_pressure;BME280_temperature;BME280_humidity;BME280_pressure;Samples;Min_cycle;Max_cycle;Signal;HPM_P1;HPM_P2
2023/05/24 00:02:57;;;;;;;12.52;6.90;;;24.00;62.30;;;;;;6115936;28;80980;-64
2023/05/24 00:05:58;;;;;;;12.13;7.10;;;24.00;62.30;;;;;;6123398;28;87633;-62
2023/05/24 00:08:58;;;;;;;9.02;6.25;;;24.00;62.20;;;;;;6125190;28;80576;-61
2023/05/24 00:11:59;;;;;;;11.00;6.85;;;24.00;62.20;;;;;;6127302;28;80392;-61
2023/05/24 00:14:59;;;;;;;10.38;6.88;;;24.00;62.10;;;;;;6127009;28;80360;-62
2023/05/24 00:18:00;;;;;;;10.63;7.35;;;24.00;62.10;;;;;;6127678;28;80213;-63
2023/05/24 00:21:00;;;;;;;11.20;7.10;;;24.00;62.20;;;;;;6135721;28;83535;-62
2023/05/24 00:24:01;;;;;;;8.63;6.25;;;23.90;62.10;;;;;;6128078;28;80135;-62
2023/05/24 00:27:01;;;;;;;11.40;6.45;;;23.90;62.00;;;;;;6126348;28;80396;-62
2023/05/24 00:30:02;;;;;;;12.18;6.50;;;23.90;62.00;;;;;;6125961;28;80243;-59
2023/05/24 00:33:02;;;;;;;11.18;6.50;;;23.90;62.00;;;;;;6125192;28;80331;-61
2023/05/24 00:36:04;;;;;;;9.93;6.47;;;24.00;62.00;;;;;;6126426;28;80440;-63
2023/05/24 00:39:05;;;;;;;8.32;5.78;;;23.90;62.00;;;;;;6126209;28;80419;-62
2023/05/24 00:42:05;;;;;;;14.40;6.72;;;23.90;62.10;;;;;;6114658;28;82772;-61
2023/05/24 00:45:07;;;;;;;8.82;6.05;;;23.90;62.00;;;;;;6125414;28;80462;-61
2023/05/24 00:48:09;;;;;;;8.10;5.75;;;23.90;62.00;;;;;;6110931;28;80324;-62
2023/05/24 00:51:10;;;;;;;10.45;6.40;;;23.90;61.90;;;;;;6113368;28;80326;-62
2023/05/24 00:54:12;;;;;;;8.75;6.57;;;23.90;61.90;;;;;;6113129;28;82013;-62
2023/05/24 00:57:13;;;;;;;10.75;5.95;;;23.90;61.90;;;;;;6142958;28;82282;-64
2023/05/24 01:00:13;;;;;;;8.98;6.03;;;23.90;61.80;;;;;;6116531;28;80292;-66
2023/05/24 01:03:14;;;;;;;9.77;5.60;;;23.90;61.70;;;;;;6120363;28;81020;-67
2023/05/24 01:06:15;;;;;;;7.03;5.65;;;23.90;61.70;;;;;;6117607;28;82179;-67
2023/05/24 01:09:15;;;;;;;10.07;6.30;;;23.90;61.60;;;;;;6137921;28;82435;-58
2023/05/24 01:12:16;;;;;;;7.95;5.40;;;23.90;61.60;;;;;;6118067;28;83555;-59
2023/05/24 01:15:17;;;;;;;9.45;5.15;;;23.90;61.60;;;;;;6115922;28;80353;-59
2023/05/24 01:18:17;;;;;;;8.43;5.40;;;23.90;61.60;;;;;;6105474;28;80992;-59
2023/05/24 01:21:18;;;;;;;6.97;5.50;;;23.90;61.50;;;;;;6117421;28;80397;-60
2023/05/24 01:24:18;;;;;;;7.75;4.90;;;23.90;61.50;;;;;;6104410;28;81751;-61
2023/05/24 01:27:19;;;;;;;6.35;5.07;;;23.80;61.50;;;;;;6103778;28;80260;-58
2023/05/24 01:30:19;;;;;;;9.40;5.75;;;23.90;61.50;;;;;;6133133;28;81678;-61
2023/05/24 01:33:20;;;;;;;8.18;5.65;;;23.80;61.40;;;;;;6111983;28;80295;-58
2023/05/24 01:36:20;;;;;;;7.32;4.97;;;23.80;61.50;;;;;;6120149;28;82101;-60
2023/05/24 01:39:21;;;;;;;7.22;5.07;;;23.90;61.40;;;;;;6108154;28;84443;-60
2023/05/24 01:42:22;;;;;;;6.38;4.75;;;23.90;61.40;;;;;;6122636;28;81605;-59
2023/05/24 01:45:23;;;;;;;9.40;5.22;;;23.80;61.50;;;;;;6122532;28;86089;-65
2023/05/24 01:48:23;;;;;;;9.07;5.20;;;23.80;61.50;;;;;;6109524;28;83283;-64
2023/05/24 01:51:24;;;;;;;8.43;5.07;;;23.80;61.50;;;;;;6134205;28;82037;-63
2023/05/24 01:54:25;;;;;;;6.68;4.95;;;23.80;61.50;;;;;;6107490;28;80073;-63
2023/05/24 01:57:25;;;;;;;6.65;5.50;;;23.80;61.50;;;;;;6106839;28;80524;-64
2023/05/24 02:00:26;;;;;;;6.93;5.22;;;23.80;61.60;;;;;;6133536;28;83490;-63
2023/05/24 02:03:27;;;;;;;7.50;4.57;;;23.80;61.50;;;;;;6123964;28;81503;-64
2023/05/24 02:06:27;;;;;;;9.05;5.53;;;23.90;61.60;;;;;;6130106;28;85310;-63
2023/05/24 02:09:28;;;;;;;7.82;5.63;;;23.80;61.60;;;;;;6140149;28;81942;-62
2023/05/24 02:12:28;;;;;;;10.88;6.45;;;23.80;61.70;;;;;;6129823;28;82212;-65
2023/05/24 02:15:29;;;;;;;8.85;5.15;;;23.80;61.70;;;;;;6128927;28;82622;-65
2023/05/24 02:18:33;;;;;;;7.63;5.80;;;23.80;61.80;;;;;;6128812;28;80548;-64
2023/05/24 02:21:33;;;;;;;7.80;6.13;;;23.80;61.80;;;;;;6122715;28;82182;-64
2023/05/24 02:24:35;;;;;;;8.80;5.50;;;23.80;61.80;;;;;;6129028;28;81840;-63
2023/05/24 02:27:36;;;;;;;10.68;6.00;;;23.80;61.90;;;;;;6120069;28;83034;-64
2023/05/24 02:30:37;;;;;;;7.85;5.82;;;23.80;62.00;;;;;;6116062;28;80776;-64
2023/05/24 02:33:37;;;;;;;8.90;5.90;;;23.80;62.00;;;;;;6110665;28;80411;-66
2023/05/24 02:36:38;;;;;;;7.47;5.38;;;23.80;62.10;;;;;;6104116;28;80904;-62
2023/05/24 02:39:38;;;;;;;9.73;6.50;;;23.80;62.10;;;;;;6122836;28;81895;-63
2023/05/24 02:42:39;;;;;;;9.05;6.28;;;23.80;62.20;;;;;;6099623;28;91140;-63
2023/05/24 02:45:39;;;;;;;10.40;6.63;;;23.80;62.20;;;;;;6108104;28;80454;-62
2023/05/24 02:48:40;;;;;;;9.80;6.38;;;23.80;62.20;;;;;;6106918;28;81225;-62
2023/05/24 02:51:41;;;;;;;9.02;6.13;;;23.80;62.30;;;;;;6115912;28;80281;-62
2023/05/24 02:54:41;;;;;;;8.32;6.55;;;23.80;62.20;;;;;;6122393;28;83120;-64
2023/05/24 02:57:42;;;;;;;11.90;7.07;;;23.80;62.30;;;;;;6105402;28;80182;-59
2023/05/24 03:00:42;;;;;;;8.57;6.43;;;23.80;62.30;;;;;;6117947;28;83047;-59
2023/05/24 03:03:43;;;;;;;13.25;7.38;;;23.80;62.30;;;;;;6116886;28;80706;-60
2023/05/24 03:06:43;;;;;;;9.43;7.00;;;23.80;62.50;;;;;;6129185;28;83421;-60
2023/05/24 03:09:44;;;;;;;10.18;7.07;;;23.80;62.50;;;;;;6130667;28;81138;-60
2023/05/24 03:12:44;;;;;;;9.23;7.07;;;23.80;62.50;;;;;;6115265;28;81601;-60
2023/05/24 03:15:45;;;;;;;9.38;7.65;;;23.80;62.30;;;;;;6119520;28;83220;-60
2023/05/24 03:18:49;;;;;;;11.35;8.05;;;23.80;62.50;;;;;;6133071;28;83456;-60
2023/05/24 03:21:50;;;;;;;13.77;8.13;;;23.80;62.80;;;;;;6126368;28;83103;-59
2023/05/24 03:24:51;;;;;;;11.43;7.65;;;23.80;62.90;;;;;;6128135;28;83977;-60
2023/05/24 03:27:52;;;;;;;10.35;7.88;;;23.80;63.00;;;;;;6137563;28;83614;-60
2023/05/24 03:30:53;;;;;;;14.10;8.95;;;23.80;63.00;;;;;;6126121;28;81210;-59
2023/05/24 03:33:54;;;;;;;13.30;9.40;;;23.80;62.90;;;;;;6127344;28;80594;-59
2023/05/24 03:36:55;;;;;;;15.43;9.60;;;23.80;62.90;;;;;;6158625;28;83566;-61
2023/05/24 03:39:56;;;;;;;14.00;9.75;;;23.80;62.90;;;;;;6125381;28;82910;-61
2023/05/24 03:43:17;;;;;;;12.13;9.15;;;23.80;62.90;;;;;;6125023;28;82451;-60
2023/05/24 03:46:25;;;;;;;12.48;8.50;;;23.80;62.90;;;;;;6122057;28;83009;-59
2023/05/24 03:49:26;;;;;;;11.80;8.18;;;23.70;62.90;;;;;;6110381;28;80727;-60
2023/05/24 03:52:27;;;;;;;11.98;8.25;;;23.80;62.80;;;;;;6125265;28;82267;-60
2023/05/24 03:55:27;;;;;;;10.88;8.35;;;23.70;63.20;;;;;;6128427;28;80783;-60
2023/05/24 03:58:28;;;;;;;10.75;7.35;;;23.80;62.70;;;;;;6118168;28;83692;-59
2023/05/24 04:01:30;;;;;;;10.57;8.05;;;23.70;62.60;;;;;;6109689;28;80542;-63
2023/05/24 04:04:31;;;;;;;12.15;7.15;;;23.80;62.80;;;;;;6108771;28;81321;-60
2023/05/24 04:07:32;;;;;;;13.18;7.25;;;23.80;62.70;;;;;;6118147;28;83756;-60
2023/05/24 04:10:33;;;;;;;15.85;7.95;;;23.80;62.70;;;;;;6149418;28;86829;-67
2023/05/24 04:13:34;;;;;;;11.70;7.50;;;23.80;62.60;;;;;;6122705;28;81577;-70
2023/05/24 04:16:34;;;;;;;10.75;7.53;;;23.80;62.50;;;;;;6109599;28;81574;-68
2023/05/24 04:19:38;;;;;;;12.38;8.60;;;23.80;62.70;;;;;;6134090;28;82902;-68
2023/05/24 04:22:39;;;;;;;14.10;8.32;;;23.90;62.70;;;;;;6124769;28;83461;-70
2023/05/24 04:25:39;;;;;;;14.18;9.43;;;23.80;62.80;;;;;;6120049;28;83335;-67
2023/05/24 04:28:41;;;;;;;12.68;9.35;;;23.80;62.80;;;;;;6121476;28;82392;-69
2023/05/24 04:31:47;;;;;;;13.93;9.45;;;23.80;62.80;;;;;;6115095;28;82832;-71
2023/05/24 04:34:48;;;;;;;14.07;11.10;;;23.80;62.90;;;;;;6114542;28;84304;-67
2023/05/24 04:37:49;;;;;;;15.80;11.05;;;23.80;62.90;;;;;;6101619;28;84465;-69
2023/05/24 04:40:51;;;;;;;15.85;11.40;;;23.80;62.90;;;;;;6114500;28;84110;-68
2023/05/24 04:43:52;;;;;;;13.55;10.15;;;23.80;62.90;;;;;;6102710;28;83040;-67
2023/05/24 04:46:52;;;;;;;13.65;10.60;;;23.70;62.80;;;;;;6099852;28;83215;-67
2023/05/24 04:49:53;;;;;;;13.40;10.80;;;23.80;62.80;;;;;;6100805;28;82953;-69
2023/05/24 04:52:53;;;;;;;15.40;10.85;;;23.80;62.80;;;;;;6100363;28;83171;-68
2023/05/24 04:55:54;;;;;;;15.55;11.93;;;23.70;62.70;;;;;;6100611;28;82805;-67
2023/05/24 04:58:54;;;;;;;16.13;12.05;;;23.70;62.60;;;;;;6112355;28;84693;-67
2023/05/24 05:01:55;;;;;;;17.40;11.73;;;23.70;62.60;;;;;;6123096;28;84476;-67
2023/05/24 05:04:55;;;;;;;17.95;12.27;;;23.70;62.50;;;;;;6128509;28;83698;-67
2023/05/24 05:07:56;;;;;;;16.02;11.93;;;23.70;62.40;;;;;;6126302;28;85902;-69
2023/05/24 05:10:57;;;;;;;18.08;13.00;;;23.70;62.30;;;;;;6111965;28;83487;-68
2023/05/24 05:13:58;;;;;;;18.80;12.32;;;23.70;62.20;;;;;;6108405;28;83905;-69
2023/05/24 05:16:58;;;;;;;16.25;12.35;;;23.70;62.10;;;;;;6115221;28;83131;-69
2023/05/24 05:19:59;;;;;;;12.23;10.82;;;23.70;62.10;;;;;;6106645;28;83654;-70
2023/05/24 05:22:59;;;;;;;14.43;11.05;;;23.70;62.00;;;;;;6138435;28;83411;-68
2023/05/24 05:26:00;;;;;;;15.90;11.40;;;23.70;62.50;;;;;;6121554;28;83614;-62
2023/05/24 05:29:01;;;;;;;16.05;11.55;;;23.70;61.80;;;;;;6123701;28;84523;-62
2023/05/24 05:32:01;;;;;;;13.82;11.30;;;23.70;61.80;;;;;;6127153;28;83759;-62
2023/05/24 05:35:02;;;;;;;17.70;12.40;;;23.70;61.70;;;;;;6114034;28;83210;-63
2023/05/24 05:38:02;;;;;;;17.23;11.18;;;23.70;61.70;;;;;;6127577;28;83260;-62
2023/05/24 05:41:03;;;;;;;17.13;12.00;;;23.70;61.70;;;;;;6126085;28;82810;-60
2023/05/24 05:44:03;;;;;;;15.38;10.93;;;23.70;61.60;;;;;;6126251;28;83146;-67
2023/05/24 05:47:06;;;;;;;13.13;10.95;;;23.70;61.60;;;;;;6137644;28;83104;-68
2023/05/24 05:50:06;;;;;;;19.17;12.75;;;23.70;61.50;;;;;;6118361;28;83181;-68
2023/05/24 05:53:07;;;;;;;16.60;12.25;;;23.70;61.60;;;;;;6109828;28;83076;-68
2023/05/24 05:56:07;;;;;;;16.88;12.48;;;23.70;61.60;;;;;;6122097;28;83159;-68
2023/05/24 05:59:08;;;;;;;19.42;12.63;;;23.70;61.60;;;;;;6113359;28;83429;-68
2023/05/24 06:02:08;;;;;;;16.20;12.45;;;23.70;61.50;;;;;;6126111;28;82740;-61
2023/05/24 06:05:09;;;;;;;14.20;11.73;;;23.70;61.40;;;;;;6126633;28;83158;-60
2023/05/24 06:08:10;;;;;;;14.10;11.07;;;23.70;61.50;;;;;;6120467;28;83650;-60
2023/05/24 06:11:10;;;;;;;15.80;12.40;;;23.70;61.50;;;;;;6129075;28;83033;-59
2023/05/24 06:14:12;;;;;;;16.05;11.02;;;23.80;61.50;;;;;;6134304;28;83546;-59
2023/05/24 06:17:12;;;;;;;15.45;11.70;;;23.70;61.40;;;;;;6113711;28;83119;-60
2023/05/24 06:20:14;;;;;;;15.23;10.73;;;23.70;61.40;;;;;;6103212;28;84088;-68
2023/05/24 06:23:15;;;;;;;15.35;11.10;;;23.70;61.50;;;;;;6103386;28;87575;-66
2023/05/24 06:26:15;;;;;;;17.60;11.93;;;23.70;61.50;;;;;;6106383;28;83671;-67
2023/05/24 06:29:18;;;;;;;14.77;10.60;;;23.70;62.20;;;;;;6103078;28;83824;-67
2023/05/24 06:32:19;;;;;;;15.13;10.57;;;23.70;61.50;;;;;;6103074;28;83418;-67
2023/05/24 06:35:19;;;;;;;18.80;11.63;;;23.70;61.50;;;;;;6103196;28;83504;-67
2023/05/24 06:38:20;;;;;;;16.67;12.00;;;23.70;61.50;;;;;;6103350;28;83042;-67
2023/05/24 06:41:21;;;;;;;15.00;10.75;;;23.70;61.50;;;;;;6105666;28;83672;-66
2023/05/24 06:44:22;;;;;;;14.75;11.73;;;23.70;61.60;;;;;;6102681;28;83203;-67
2023/05/24 06:47:23;;;;;;;17.33;11.63;;;23.70;61.60;;;;;;6117155;28;84177;-67
2023/05/24 06:50:24;;;;;;;14.30;10.82;;;23.70;61.50;;;;;;6102251;28;83583;-68
2023/05/24 06:53:24;;;;;;;13.65;10.35;;;23.70;61.60;;;;;;6123696;28;83734;-67
2023/05/24 06:56:25;;;;;;;13.85;11.07;;;23.70;61.60;;;;;;6125957;28;82726;-66
2023/05/24 06:59:26;;;;;;;14.90;10.82;;;23.70;61.60;;;;;;6125547;28;83237;-67
2023/05/24 07:02:27;;;;;;;17.17;11.70;;;23.70;61.60;;;;;;6115914;28;87843;-68
2023/05/24 07:05:28;;;;;;;13.85;10.10;;;23.70;61.70;;;;;;6123204;28;82901;-69
2023/05/24 07:08:29;;;;;;;16.17;11.60;;;23.70;61.70;;;;;;6125385;28;83104;-67
2023/05/24 07:11:30;;;;;;;14.35;10.95;;;23.70;61.70;;;;;;6125173;28;82892;-68
2023/05/24 07:14:30;;;;;;;13.93;10.68;;;23.70;61.60;;;;;;6125297;28;83033;-68
2023/05/24 07:17:31;;;;;;;14.10;11.02;;;23.70;61.70;;;;;;6123281;28;82967;-69
2023/05/24 07:20:31;;;;;;;12.88;10.70;;;23.70;61.70;;;;;;6112489;28;83582;-69
2023/05/24 07:23:32;;;;;;;12.65;9.98;;;23.70;61.70;;;;;;6113549;28;82886;-68
2023/05/24 07:26:33;;;;;;;14.20;10.50;;;23.70;61.70;;;;;;6124842;28;83281;-68
2023/05/24 07:29:33;;;;;;;13.75;10.10;;;23.70;61.70;;;;;;6124928;28;83367;-68
2023/05/24 07:32:34;;;;;;;14.85;10.73;;;23.70;61.70;;;;;;6125116;28;83418;-69
2023/05/24 07:35:35;;;;;;;15.27;9.95;;;23.70;61.80;;;;;;6125199;28;83494;-68
2023/05/24 07:38:35;;;;;;;12.93;10.90;;;23.70;61.70;;;;;;6127835;28;83572;-69
2023/05/24 07:41:36;;;;;;;15.07;10.90;;;23.70;61.80;;;;;;6136815;28;85418;-68
2023/05/24 07:44:36;;;;;;;16.08;11.10;;;23.70;61.80;;;;;;6113879;28;83151;-69
2023/05/24 07:47:37;;;;;;;15.18;10.45;;;23.60;61.90;;;;;;6101517;28;82869;-68
2023/05/24 07:50:37;;;;;;;17.45;11.82;;;23.70;62.00;;;;;;6100719;28;83174;-67
2023/05/24 07:53:38;;;;;;;16.92;11.82;;;23.70;62.10;;;;;;6110877;28;84009;-70
2023/05/24 07:56:39;;;;;;;19.58;13.50;;;23.70;62.10;;;;;;6123600;28;83469;-68
2023/05/24 07:59:41;;;;;;;18.10;11.82;;;23.70;62.20;;;;;;6117670;28;84802;-69
2023/05/24 08:02:41;;;;;;;18.38;12.43;;;23.70;62.20;;;;;;6127209;28;83391;-69
2023/05/24 08:05:42;;;;;;;16.08;12.52;;;23.70;62.20;;;;;;6116602;28;83989;-69
2023/05/24 08:08:44;;;;;;;15.32;11.93;;;23.70;62.30;;;;;;6122513;28;82907;-69
2023/05/24 08:11:44;;;;;;;16.40;12.65;;;23.70;62.30;;;;;;6111983;28;83214;-67
2023/05/24 08:14:45;;;;;;;18.33;12.73;;;23.70;62.30;;;;;;6123324;28;82754;-68
2023/05/24 08:17:46;;;;;;;17.63;13.13;;;23.70;62.30;;;;;;6123320;28;83338;-68
2023/05/24 08:20:46;;;;;;;15.93;12.35;;;23.60;62.20;;;;;;6127179;28;85486;-67
2023/05/24 08:23:47;;;;;;;14.30;11.15;;;23.70;62.30;;;;;;6132314;28;83156;-67
2023/05/24 08:26:48;;;;;;;15.25;11.82;;;23.70;62.10;;;;;;6124983;28;83214;-67
2023/05/24 08:29:49;;;;;;;17.42;11.85;;;23.70;62.10;;;;;;6124295;28;83060;-69
2023/05/24 08:32:49;;;;;;;14.75;11.60;;;23.70;62.00;;;;;;6123533;28;83215;-67
2023/05/24 08:35:50;;;;;;;14.35;11.55;;;23.60;62.50;;;;;;6123785;28;83352;-66
2023/05/24 08:38:51;;;;;;;19.02;11.15;;;23.60;61.70;;;;;;6126715;28;83338;-68
2023/05/24 08:41:51;;;;;;;15.77;11.15;;;23.60;61.60;;;;;;6127061;28;82948;-67
2023/05/24 08:44:52;;;;;;;15.80;11.82;;;23.70;61.60;;;;;;6126918;28;83944;-68
2023/05/24 08:47:52;;;;;;;14.73;10.25;;;23.60;61.40;;;;;;6126659;28;92974;-68
2023/05/24 08:50:53;;;;;;;16.00;9.77;;;23.60;61.40;;;;;;6118064;28;83135;-68
2023/05/24 08:53:54;;;;;;;16.05;10.73;;;23.60;61.30;;;;;;6119335;28;82956;-67
2023/05/24 08:56:55;;;;;;;13.98;10.25;;;23.60;61.20;;;;;;6103712;28;83242;-67
2023/05/24 08:59:56;;;;;;;12.45;9.23;;;23.60;61.20;;;;;;6119523;28;83986;-67
2023/05/24 09:02:56;;;;;;;13.80;9.98;;;23.60;61.10;;;;;;6129420;28;82994;-68
2023/05/24 09:05:57;;;;;;;12.45;9.63;;;23.60;61.10;;;;;;6126715;28;83161;-68
2023/05/24 09:08:57;;;;;;;11.75;8.77;;;23.60;61.10;;;;;;6115541;28;83410;-68
2023/05/24 09:11:59;;;;;;;10.48;8.73;;;23.60;60.90;;;;;;6128227;28;80676;-66
2023/05/24 09:14:59;;;;;;;10.45;8.65;;;23.60;60.90;;;;;;6129376;28;80855;-66
2023/05/24 09:18:00;;;;;;;9.65;8.43;;;23.50;60.90;;;;;;6129009;28;82601;-67
2023/05/24 09:21:00;;;;;;;12.38;8.70;;;23.50;60.80;;;;;;6130472;28;81378;-67
2023/05/24 09:24:01;;;;;;;10.32;7.82;;;23.60;60.80;;;;;;6128734;28;80663;-67
2023/05/24 09:27:02;;;;;;;10.80;9.18;;;23.60;60.70;;;;;;6129419;28;80106;-67
2023/05/24 09:30:04;;;;;;;11.70;8.68;;;23.60;60.60;;;;;;6130005;28;81775;-68
2023/05/24 09:33:05;;;;;;;10.25;7.82;;;23.50;60.60;;;;;;6129014;28;80849;-67
2023/05/24 09:36:06;;;;;;;11.88;7.68;;;23.50;60.50;;;;;;6128666;28;81615;-67
2023/05/24 09:39:10;;;;;;;10.18;7.85;;;23.50;60.40;;;;;;6128366;28;81083;-68
2023/05/24 09:42:10;;;;;;;10.93;7.57;;;23.50;60.40;;;;;;6127950;28;80849;-61
2023/05/24 09:45:11;;;;;;;10.15;7.95;;;23.50;60.30;;;;;;6128524;28;80832;-61
2023/05/24 09:48:12;;;;;;;10.48;8.55;;;23.50;60.20;;;;;;6125102;28;82173;-61
2023/05/24 09:51:14;;;;;;;9.90;7.68;;;23.50;60.10;;;;;;6115136;28;83054;-61
2023/05/24 09:54:16;;;;;;;9.63;7.57;;;23.50;60.00;;;;;;6127168;28;82050;-62
2023/05/24 09:57:16;;;;;;;11.85;8.27;;;23.50;59.90;;;;;;6128487;28;80682;-62
2023/05/24 10:00:20;;;;;;;10.75;8.25;;;23.50;59.90;;;;;;6128895;28;81115;-59
2023/05/24 10:03:20;;;;;;;14.02;8.80;;;23.40;59.70;;;;;;6159561;28;83354;-60
2023/05/24 10:06:22;;;;;;;11.73;9.13;;;23.40;59.60;;;;;;6122225;28;80602;-60
2023/05/24 10:09:23;;;;;;;13.95;8.95;;;23.40;59.60;;;;;;6105249;28;80648;-60
2023/05/24 10:12:24;;;;;;;11.15;8.43;;;23.40;59.60;;;;;;6106421;28;81152;-60
2023/05/24 10:15:25;;;;;;;12.27;8.88;;;23.40;59.50;;;;;;6105143;28;80332;-60
2023/05/24 10:18:25;;;;;;;11.23;8.80;;;23.40;59.50;;;;;;6106208;28;80425;-67
2023/05/24 10:21:26;;;;;;;13.98;9.40;;;23.40;59.40;;;;;;6110012;28;81163;-67
2023/05/24 10:24:26;;;;;;;12.02;9.13;;;23.40;59.40;;;;;;6111435;28;81192;-68
2023/05/24 10:27:29;;;;;;;14.05;10.05;;;23.40;59.30;;;;;;6115762;28;80282;-68
2023/05/24 10:30:30;;;;;;;14.00;10.40;;;23.40;59.30;;;;;;6118292;28;84034;-67
2023/05/24 10:33:30;;;;;;;13.40;10.50;;;23.40;59.20;;;;;;6103701;28;82899;-68
2023/05/24 10:36:31;;;;;;;14.13;10.68;;;23.40;59.10;;;;;;6105719;28;83407;-68
2023/05/24 10:39:32;;;;;;;18.05;10.55;;;23.40;59.00;;;;;;6102945;28;82911;-69
2023/05/24 10:42:32;;;;;;;13.57;9.80;;;23.50;59.00;;;;;;6102928;28;83715;-70
2023/05/24 10:45:36;;;;;;;13.75;10.65;;;23.40;59.00;;;;;;6108169;28;81708;-69
2023/05/24 10:48:37;;;;;;;15.23;9.77;;;23.30;58.90;;;;;;6102006;28;82827;-68
2023/05/24 10:51:38;;;;;;;12.18;9.38;;;23.40;58.90;;;;;;6123086;28;82796;-70
2023/05/24 10:54:38;;;;;;;13.70;10.50;;;23.40;58.80;;;;;;6109131;28;81534;-68
2023/05/24 10:57:39;;;;;;;12.90;10.25;;;23.40;58.80;;;;;;6101306;28;83464;-68
2023/05/24 11:00:39;;;;;;;14.70;9.52;;;23.40;58.80;;;;;;6128054;28;85655;-68
2023/05/24 11:03:40;;;;;;;13.18;9.48;;;23.40;58.70;;;;;;6104668;28;83325;-65
2023/05/24 11:06:41;;;;;;;14.05;9.57;;;23.40;58.70;;;;;;6112880;28;82397;-65
2023/05/24 11:09:45;;;;;;;14.25;10.32;;;23.40;58.70;;;;;;6104904;28;80566;-66
2023/05/24 11:12:46;;;;;;;15.00;10.05;;;23.40;58.70;;;;;;6101963;28;83130;-67
2023/05/24 11:15:46;;;;;;;14.20;11.43;;;23.40;58.70;;;;;;6100964;28;83175;-58
2023/05/24 11:18:47;;;;;;;18.08;11.13;;;23.40;58.70;;;;;;6101283;28;83160;-59
2023/05/24 11:21:47;;;;;;;15.75;12.00;;;23.40;58.60;;;;;;6103922;28;82996;-59
2023/05/24 11:24:48;;;;;;;16.13;10.88;;;23.40;58.60;;;;;;6100122;28;82969;-59
2023/05/24 11:27:48;;;;;;;14.40;10.75;;;23.40;58.60;;;;;;6100404;28;88879;-59
2023/05/24 11:30:49;;;;;;;14.45;10.85;;;23.40;58.50;;;;;;6106660;28;83314;-61
2023/05/24 11:33:50;;;;;;;14.98;11.85;;;23.40;59.00;;;;;;6104734;28;84169;-62
2023/05/24 11:36:52;;;;;;;15.85;12.43;;;23.40;58.40;;;;;;6109195;28;83970;-62
2023/05/24 11:39:52;;;;;;;16.35;11.88;;;23.40;58.30;;;;;;6105940;28;82926;-62
2023/05/24 11:42:53;;;;;;;14.00;10.90;;;23.40;58.20;;;;;;6123276;28;83763;-61
2023/05/24 11:45:53;;;;;;;13.18;10.40;;;23.40;58.20;;;;;;6135129;28;84210;-63
2023/05/24 11:48:54;;;;;;;12.73;10.25;;;23.40;58.10;;;;;;6122137;28;85276;-63
2023/05/24 11:51:55;;;;;;;16.55;10.50;;;23.40;58.00;;;;;;6111057;28;83299;-63
2023/05/24 11:54:56;;;;;;;18.52;11.13;;;23.40;57.90;;;;;;6114677;28;84614;-61
2023/05/24 11:57:56;;;;;;;13.30;9.75;;;23.40;57.90;;;;;;6100201;28;82849;-62
2023/05/24 12:00:57;;;;;;;15.02;9.65;;;23.40;57.80;;;;;;6126655;28;83045;-62
2023/05/24 12:03:57;;;;;;;13.68;10.10;;;23.40;57.80;;;;;;6126987;28;80334;-62
2023/05/24 12:06:58;;;;;;;15.20;10.13;;;23.40;57.70;;;;;;6123647;28;83066;-61
2023/05/24 12:09:58;;;;;;;13.82;10.90;;;23.40;57.70;;;;;;6124352;28;83497;-61
2023/05/24 12:12:59;;;;;;;13.27;10.13;;;23.40;57.70;;;;;;6122920;28;83312;-60
2023/05/24 12:16:00;;;;;;;14.75;10.07;;;23.40;57.60;;;;;;6120373;28;83644;-60
2023/05/24 12:19:01;;;;;;;12.50;9.63;;;23.40;57.70;;;;;;6102941;28;83358;-61
2023/05/24 12:22:01;;;;;;;13.48;10.05;;;23.40;57.60;;;;;;6103199;28;83642;-61
2023/05/24 12:25:02;;;;;;;13.23;10.90;;;23.40;57.70;;;;;;6099421;28;83033;-62
2023/05/24 12:28:02;;;;;;;12.43;9.52;;;23.40;57.60;;;;;;6121689;28;83175;-60
2023/05/24 12:31:03;;;;;;;14.02;10.20;;;23.40;57.50;;;;;;6125716;28;81618;-61
2023/05/24 12:34:05;;;;;;;13.32;9.80;;;23.30;57.50;;;;;;6108398;28;85852;-59
2023/05/24 12:37:05;;;;;;;12.45;9.63;;;23.40;57.50;;;;;;6114773;28;84405;-59
2023/05/24 12:40:06;;;;;;;12.73;9.70;;;23.40;57.50;;;;;;6104488;28;80865;-59
2023/05/24 12:43:07;;;;;;;11.38;8.90;;;23.30;57.40;;;;;;6118637;28;82930;-60
2023/05/24 12:46:07;;;;;;;14.30;10.50;;;23.30;57.40;;;;;;6104071;28;80710;-61
2023/05/24 12:49:08;;;;;;;16.70;10.38;;;23.40;57.40;;;;;;6102461;28;83469;-60
2023/05/24 12:52:08;;;;;;;13.45;10.02;;;23.40;57.40;;;;;;6110828;28;82911;-60
2023/05/24 12:55:09;;;;;;;12.85;9.35;;;23.30;57.30;;;;;;6100553;28;83157;-59
2023/05/24 12:58:10;;;;;;;12.70;9.27;;;23.40;57.30;;;;;;6104930;28;83116;-60
2023/05/24 13:01:11;;;;;;;18.73;10.63;;;23.40;57.30;;;;;;6140426;28;83930;-59
2023/05/24 13:04:11;;;;;;;11.57;9.18;;;23.30;57.20;;;;;;6105240;28;83700;-61
2023/05/24 13:07:12;;;;;;;13.60;8.70;;;23.40;57.30;;;;;;6102501;28;83292;-62
2023/05/24 13:10:12;;;;;;;16.40;9.88;;;23.30;57.20;;;;;;6116515;28;83526;-62
2023/05/24 13:13:13;;;;;;;14.25;9.90;;;23.40;57.20;;;;;;6103348;28;80698;-61
2023/05/24 13:16:13;;;;;;;11.45;8.65;;;23.40;57.20;;;;;;6103908;28;80380;-62
2023/05/24 13:19:15;;;;;;;15.15;9.25;;;23.30;57.10;;;;;;6106811;28;80102;-61
2023/05/24 13:22:15;;;;;;;12.68;9.50;;;23.30;57.00;;;;;;6103372;28;80679;-63
2023/05/24 13:25:16;;;;;;;11.38;9.18;;;23.40;57.00;;;;;;6107846;28;80731;-62
2023/05/24 13:28:16;;;;;;;13.05;9.10;;;23.40;56.90;;;;;;6106929;28;80885;-61
2023/05/24 13:31:17;;;;;;;12.32;8.63;;;23.40;56.90;;;;;;6113446;28;80686;-63
2023/05/24 13:34:18;;;;;;;14.82;9.07;;;23.40;56.80;;;;;;6110142;28;83422;-62
2023/05/24 13:37:18;;;;;;;12.40;9.50;;;23.40;56.90;;;;;;6106691;28;80879;-62
2023/05/24 13:40:19;;;;;;;12.95;8.93;;;23.40;56.90;;;;;;6107758;28;81665;-59
2023/05/24 13:43:19;;;;;;;13.27;8.95;;;23.40;56.80;;;;;;6107435;28;80383;-59
2023/05/24 13:46:20;;;;;;;11.98;8.13;;;23.40;56.80;;;;;;6109520;28;80338;-60
2023/05/24 13:49:20;;;;;;;12.90;8.80;;;23.40;56.80;;;;;;6107253;28;81693;-60
2023/05/24 13:52:21;;;;;;;15.15;8.98;;;23.40;56.70;;;;;;6106442;28;80226;-60
2023/05/24 13:55:21;;;;;;;11.43;8.35;;;23.40;56.70;;;;;;6106897;28;81036;-61
2023/05/24 13:58:22;;;;;;;11.32;8.85;;;23.40;56.70;;;;;;6108671;28;82170;-63
2023/05/24 14:01:23;;;;;;;10.13;7.90;;;23.40;56.70;;;;;;6128386;28;82820;-63
2023/05/24 14:04:23;;;;;;;13.40;8.88;;;23.40;56.90;;;;;;6129460;28;87693;-60
2023/05/24 14:07:24;;;;;;;12.65;9.23;;;23.40;56.80;;;;;;6130243;28;80813;-58
2023/05/24 14:10:24;;;;;;;15.52;8.70;;;23.40;56.80;;;;;;6121425;28;81552;-58
2023/05/24 14:13:25;;;;;;;38.92;21.85;;;23.50;57.10;;;;;;6127136;28;81437;-59
2023/05/24 14:16:25;;;;;;;237.98;122.40;;;23.50;57.20;;;;;;6123440;28;83242;-59
2023/05/24 14:19:26;;;;;;;296.33;151.88;;;23.50;57.50;;;;;;6108268;28;86478;-58
2023/05/24 14:22:28;;;;;;;286.15;146.05;;;23.50;57.70;;;;;;6117748;28;85310;-59
2023/05/24 14:25:28;;;;;;;335.75;175.40;;;23.50;58.10;;;;;;6107065;28;88300;-58
2023/05/24 14:28:29;;;;;;;406.27;212.80;;;23.60;57.80;;;;;;6117608;28;85903;-59
2023/05/24 14:31:29;;;;;;;334.35;172.23;;;23.60;57.80;;;;;;6113322;28;86011;-60
2023/05/24 14:34:30;;;;;;;253.45;131.00;;;23.60;57.90;;;;;;6115832;28;85764;-60
2023/05/24 14:37:30;;;;;;;241.02;118.97;;;23.70;57.70;;;;;;6117947;28;85559;-59
2023/05/24 14:40:32;;;;;;;193.63;100.05;;;23.70;57.60;;;;;;6116202;28;85867;-58
2023/05/24 14:43:33;;;;;;;153.00;79.88;;;23.70;57.80;;;;;;6120849;28;85768;-59
2023/05/24 14:46:33;;;;;;;128.90;66.25;;;23.70;57.60;;;;;;6122258;28;86339;-58
2023/05/24 14:49:34;;;;;;;106.00;55.83;;;23.60;57.50;;;;;;6114704;28;83233;-58
2023/05/24 14:52:34;;;;;;;76.90;39.70;;;23.60;57.80;;;;;;6107610;28;83176;-56
2023/05/24 14:55:36;;;;;;;74.82;38.33;;;23.60;57.50;;;;;;6113818;28;82985;-61
2023/05/24 14:58:37;;;;;;;69.80;33.80;;;23.60;57.40;;;;;;6117678;28;82980;-61
2023/05/24 15:01:37;;;;;;;63.42;33.13;;;23.60;57.20;;;;;;6112655;28;85295;-62
2023/05/24 15:04:37;;;;;;;58.42;28.73;;;23.60;57.30;;;;;;6127587;28;82832;-62
2023/05/24 15:07:38;;;;;;;50.45;26.05;;;23.60;57.20;;;;;;6116752;28;83953;-60
2023/05/24 15:10:39;;;;;;;39.35;21.77;;;23.60;57.20;;;;;;6120150;28;83558;-66
2023/05/24 15:13:39;;;;;;;36.25;19.70;;;23.60;57.10;;;;;;6120428;28;83433;-65
2023/05/24 15:16:40;;;;;;;34.60;18.77;;;23.60;57.30;;;;;;6122626;28;83881;-65
2023/05/24 15:19:41;;;;;;;37.20;17.35;;;23.70;58.10;;;;;;6125307;28;85276;-66
2023/05/24 15:22:41;;;;;;;28.33;16.08;;;23.70;57.40;;;;;;6119958;28;83479;-63
2023/05/24 15:25:42;;;;;;;26.30;14.50;;;23.70;57.20;;;;;;6113532;28;83764;-64